Time;durP1;ratioP1;P1;durP2;ratioP2;P2;SDS_P1;SDS_P2;PMS_P1;PMS_P2;Temp;Humidity;BMP_temperature;BMP_pressure;BME280_temperature;BME280_humidity;BME280_pressure;Samples;Min_cycle;Max_cycle;Signal;HPM_P1;HPM_P2
2022/10/04 00:01:12;;;;;;;11.98;5.15;;;12.20;99.90;;;;;;3056989;19;20463;-66
2022/10/04 00:02:23;;;;;;;12.68;5.38;;;12.20;99.90;;;;;;3058673;19;20025;-66
2022/10/04 00:03:31;;;;;;;12.90;5.38;;;12.50;99.90;;;;;;3056187;19;20048;-66
2022/10/04 00:04:40;;;;;;;10.68;4.95;;;12.40;99.90;;;;;;3057541;19;20018;-66
2022/10/04 00:05:44;;;;;;;9.68;4.95;;;12.50;99.90;;;;;;3057356;19;20010;-66
2022/10/04 00:06:51;;;;;;;11.18;4.90;;;12.40;99.90;;;;;;3059243;19;20038;-66
2022/10/04 00:07:59;;;;;;;9.70;4.93;;;12.50;99.90;;;;;;3058769;19;20019;-67
2022/10/04 00:09:07;;;;;;;10.10;4.63;;;12.90;99.90;;;;;;3057738;19;20015;-67
2022/10/04 00:10:21;;;;;;;11.38;5.20;;;12.40;99.90;;;;;;3058393;19;20408;-66
2022/10/04 00:11:25;;;;;;;10.98;5.10;;;12.20;99.90;;;;;;3057349;19;20015;-66
2022/10/04 00:12:32;;;;;;;13.13;4.90;;;12.60;99.90;;;;;;3057431;19;20024;-66
2022/10/04 00:13:37;;;;;;;13.75;5.38;;;12.60;99.90;;;;;;3057314;19;20018;-66
2022/10/04 00:14:44;;;;;;;10.23;4.57;;;12.40;99.90;;;;;;3057845;19;20010;-66
2022/10/04 00:15:49;;;;;;;13.38;4.90;;;12.40;99.90;;;;;;3057861;19;20086;-66
2022/10/04 00:16:57;;;;;;;9.98;5.05;;;12.50;99.90;;;;;;3058514;19;20010;-66
2022/10/04 00:18:06;;;;;;;8.50;4.97;;;12.40;99.90;;;;;;3057680;19;20049;-66
2022/10/04 00:19:41;;;;;;;10.38;5.22;;;12.50;99.90;;;;;;3057607;19;20502;-66
2022/10/04 00:20:59;;;;;;;11.50;5.13;;;12.50;99.90;;;;;;3059107;19;20021;-66
2022/10/04 00:22:17;;;;;;;11.50;4.97;;;12.30;99.90;;;;;;3061621;19;20034;-66
2022/10/04 00:23:27;;;;;;;12.63;5.03;;;12.50;99.90;;;;;;3059616;19;20010;-66
2022/10/04 00:24:33;;;;;;;11.00;5.20;;;12.50;99.90;;;;;;3060904;19;20007;-66
2022/10/04 00:25:35;;;;;;;16.52;5.95;;;12.30;99.90;;;;;;3060119;19;20015;-66
2022/10/04 00:27:14;;;;;;;10.18;5.30;;;12.50;99.90;;;;;;3061015;19;20011;-66
2022/10/04 00:28:43;;;;;;;11.88;5.40;;;12.20;99.90;;;;;;3060661;19;20014;-67
2022/10/04 00:30:07;;;;;;;15.68;5.68;;;12.40;99.90;;;;;;3060675;19;20015;-67
2022/10/04 00:31:14;;;;;;;15.13;5.53;;;12.10;99.90;;;;;;3062324;19;20014;-66
2022/10/04 00:32:29;;;;;;;12.80;5.60;;;12.30;99.90;;;;;;3060725;19;20389;-67
2022/10/04 00:33:37;;;;;;;11.98;5.47;;;13.00;99.90;;;;;;3060279;19;20018;-66
2022/10/04 00:34:49;;;;;;;11.48;5.53;;;12.30;99.90;;;;;;3060569;19;20015;-66
2022/10/04 00:35:50;;;;;;;17.85;6.53;;;12.30;99.90;;;;;;3060166;19;20015;-67
2022/10/04 00:36:55;;;;;;;13.30;6.78;;;12.30;99.90;;;;;;3060599;19;20073;-66
2022/10/04 00:37:58;;;;;;;13.30;6.72;;;12.20;99.90;;;;;;3061545;19;20015;-66
2022/10/04 00:39:19;;;;;;;15.73;7.13;;;12.40;99.90;;;;;;3061957;19;20025;-66
2022/10/04 00:40:23;;;;;;;15.60;6.20;;;12.30;99.90;;;;;;3061585;19;20083;-66
2022/10/04 00:41:27;;;;;;;11.05;6.43;;;12.30;99.90;;;;;;3061695;19;20349;-66
2022/10/04 00:42:49;;;;;;;11.27;6.18;;;12.50;99.90;;;;;;3062142;19;20025;-66
2022/10/04 00:43:52;;;;;;;12.05;5.28;;;12.20;99.90;;;;;;3062664;19;20014;-66
2022/10/04 00:45:00;;;;;;;13.30;6.68;;;12.30;99.90;;;;;;3062845;19;20010;-66
2022/10/04 00:46:07;;;;;;;12.48;5.85;;;12.10;99.90;;;;;;3061930;19;20038;-66
2022/10/04 00:47:23;;;;;;;14.77;6.28;;;12.10;99.90;;;;;;3063225;19;20014;-67
2022/10/04 00:48:40;;;;;;;13.73;6.50;;;12.10;99.90;;;;;;3060876;19;20018;-66
2022/10/04 00:49:45;;;;;;;13.40;5.55;;;12.10;99.90;;;;;;3060672;19;20006;-67
2022/10/04 00:50:54;;;;;;;11.05;5.75;;;12.00;99.90;;;;;;3061155;19;20010;-67
2022/10/04 00:52:00;;;;;;;12.00;5.93;;;12.10;99.90;;;;;;3060169;19;20074;-67
2022/10/04 00:53:17;;;;;;;12.68;6.18;;;12.00;99.90;;;;;;3060438;19;20018;-66
2022/10/04 00:54:22;;;;;;;10.23;5.28;;;12.00;99.90;;;;;;3061141;19;20019;-67
2022/10/04 00:55:33;;;;;;;15.43;7.00;;;12.10;99.90;;;;;;3061053;19;20079;-66
2022/10/04 00:56:44;;;;;;;9.43;6.00;;;12.00;99.90;;;;;;3059383;19;20017;-66
2022/10/04 00:57:49;;;;;;;14.05;5.72;;;12.10;99.90;;;;;;3058752;19;20018;-66
2022/10/04 00:59:19;;;;;;;11.88;5.90;;;12.00;99.90;;;;;;3057494;19;20026;-66
2022/10/04 01:00:21;;;;;;;12.10;5.88;;;11.70;99.90;;;;;;3060580;19;20097;-67
2022/10/04 01:01:29;;;;;;;14.90;6.40;;;11.80;99.90;;;;;;3062000;19;20015;-67
2022/10/04 01:02:36;;;;;;;13.35;6.60;;;12.00;99.90;;;;;;3060558;19;20018;-66
2022/10/04 01:03:45;;;;;;;13.00;6.13;;;12.30;99.90;;;;;;3059753;19;20010;-66
2022/10/04 01:04:52;;;;;;;14.65;6.57;;;12.10;99.90;;;;;;3061381;19;20011;-66
2022/10/04 01:06:00;;;;;;;10.93;6.10;;;12.10;99.90;;;;;;3059820;19;20015;-66
2022/10/04 01:07:03;;;;;;;15.40;6.78;;;12.00;99.90;;;;;;3059693;19;20014;-67
2022/10/04 01:08:12;;;;;;;15.93;6.88;;;12.20;99.90;;;;;;3060167;19;20019;-67
2022/10/04 01:09:16;;;;;;;12.20;6.40;;;12.00;99.90;;;;;;3059684;19;20023;-66
2022/10/04 01:10:23;;;;;;;12.10;6.03;;;12.20;99.90;;;;;;3060321;19;20022;-66
2022/10/04 01:11:28;;;;;;;11.05;6.13;;;12.10;99.90;;;;;;3060119;19;20029;-66
2022/10/04 01:12:44;;;;;;;13.68;6.40;;;12.00;99.90;;;;;;3061560;19;20101;-66
2022/10/04 01:13:49;;;;;;;10.95;5.95;;;11.80;99.90;;;;;;3060628;19;20019;-66
2022/10/04 01:15:00;;;;;;;10.68;6.15;;;11.70;99.90;;;;;;3060429;19;20022;-66
2022/10/04 01:16:10;;;;;;;11.85;6.20;;;12.10;99.90;;;;;;3058849;19;20018;-66
2022/10/04 01:17:14;;;;;;;14.00;6.60;;;12.00;99.90;;;;;;3060324;19;20435;-66
2022/10/04 01:18:27;;;;;;;16.77;6.78;;;12.10;99.90;;;;;;3061013;19;20054;-66
2022/10/04 01:19:34;;;;;;;16.52;7.00;;;11.80;99.90;;;;;;3059792;19;20490;-66
2022/10/04 01:20:38;;;;;;;13.32;6.25;;;12.30;99.90;;;;;;3060215;19;20093;-66
2022/10/04 01:21:43;;;;;;;13.90;6.40;;;12.00;99.90;;;;;;3059897;19;20371;-66
2022/10/04 01:22:49;;;;;;;16.40;6.82;;;12.10;99.90;;;;;;3060157;19;20019;-66
2022/10/04 01:23:56;;;;;;;12.27;7.15;;;12.30;99.90;;;;;;3061603;19;20014;-66
2022/10/04 01:24:57;;;;;;;14.98;7.07;;;12.30;99.90;;;;;;3059997;19;20003;-66
2022/10/04 01:26:01;;;;;;;12.90;6.85;;;12.00;99.90;;;;;;3059587;19;20019;-66
2022/10/04 01:27:03;;;;;;;15.68;7.03;;;12.00;99.90;;;;;;3059391;19;20002;-66
2022/10/04 01:28:07;;;;;;;13.27;6.90;;;12.00;99.90;;;;;;3061051;19;20038;-66
2022/10/04 01:29:12;;;;;;;18.77;7.30;;;12.00;99.90;;;;;;3060821;19;20077;-66
2022/10/04 01:30:19;;;;;;;13.35;7.07;;;11.70;99.90;;;;;;3059902;19;20010;-67
2022/10/04 01:31:21;;;;;;;13.32;7.55;;;11.80;99.90;;;;;;3060290;19;20028;-66
2022/10/04 01:32:25;;;;;;;14.23;6.97;;;11.90;99.90;;;;;;3058949;19;20514;-66
2022/10/04 01:33:26;;;;;;;13.93;6.97;;;12.00;99.90;;;;;;3059937;19;20003;-66
2022/10/04 01:34:32;;;;;;;14.13;7.10;;;12.00;99.90;;;;;;3059744;19;20018;-66
2022/10/04 01:35:34;;;;;;;16.83;6.53;;;11.90;99.90;;;;;;3058938;19;20074;-66
2022/10/04 01:36:38;;;;;;;13.00;7.43;;;11.80;99.90;;;;;;3060543;19;20044;-67
2022/10/04 01:37:42;;;;;;;12.48;7.20;;;12.10;99.90;;;;;;3059956;19;20011;-66
2022/10/04 01:38:46;;;;;;;13.82;7.45;;;12.00;99.90;;;;;;3060929;19;20022;-66
2022/10/04 01:39:50;;;;;;;10.70;6.60;;;12.20;99.90;;;;;;3059918;19;20018;-66
2022/10/04 01:40:56;;;;;;;15.15;7.32;;;12.30;99.90;;;;;;3059856;19;20014;-66
2022/10/04 01:42:06;;;;;;;16.52;7.07;;;11.90;99.90;;;;;;3059661;19;20006;-66
2022/10/04 01:43:11;;;;;;;12.23;7.22;;;12.20;99.90;;;;;;3058526;19;20119;-66
2022/10/04 01:44:24;;;;;;;13.13;7.32;;;12.10;99.90;;;;;;3059557;19;20019;-66
2022/10/04 01:45:34;;;;;;;17.15;7.00;;;11.80;99.90;;;;;;3059155;19;20018;-66
2022/10/04 01:46:40;;;;;;;15.00;7.80;;;11.90;99.90;;;;;;3059347;19;20500;-66
2022/10/04 01:47:47;;;;;;;14.65;7.50;;;11.90;99.90;;;;;;3059729;19;20482;-66
2022/10/04 01:48:51;;;;;;;14.57;7.90;;;11.90;99.90;;;;;;3059601;19;20479;-66
2022/10/04 01:49:57;;;;;;;17.20;7.88;;;11.70;99.90;;;;;;3059896;19;20007;-66
2022/10/04 01:51:04;;;;;;;20.10;8.45;;;12.00;99.90;;;;;;3060194;19;20014;-66
2022/10/04 01:52:09;;;;;;;14.98;7.50;;;11.80;99.90;;;;;;3059711;19;20013;-66
2022/10/04 01:53:19;;;;;;;17.60;7.78;;;11.70;99.90;;;;;;3059520;19;20038;-66
2022/10/04 01:54:33;;;;;;;14.30;7.70;;;12.00;99.90;;;;;;3058637;19;20015;-66
2022/10/04 01:55:40;;;;;;;16.65;8.10;;;11.90;99.90;;;;;;3059073;19;20082;-66
2022/10/04 01:56:46;;;;;;;17.08;7.43;;;12.10;99.90;;;;;;3059212;19;20037;-66
2022/10/04 01:57:54;;;;;;;16.20;8.25;;;12.30;99.90;;;;;;3059917;19;20044;-66
2022/10/04 01:59:00;;;;;;;14.27;7.68;;;12.00;99.90;;;;;;3059379;19;20031;-65
2022/10/04 02:00:07;;;;;;;16.95;7.80;;;12.00;99.90;;;;;;3059426;19;20017;-65
2022/10/04 02:01:13;;;;;;;17.02;7.82;;;12.20;99.90;;;;;;3059544;19;20025;-66
2022/10/04 02:02:26;;;;;;;17.92;8.00;;;12.10;99.90;;;;;;3061490;19;20014;-66
2022/10/04 02:03:34;;;;;;;17.38;7.70;;;12.10;99.90;;;;;;3061227;19;20010;-66
2022/10/04 02:04:38;;;;;;;18.23;8.38;;;12.40;99.90;;;;;;3058850;19;20526;-66
2022/10/04 02:05:46;;;;;;;19.13;8.13;;;12.20;99.90;;;;;;3061201;19;20019;-66
2022/10/04 02:06:52;;;;;;;13.85;7.75;;;12.40;99.90;;;;;;3058739;19;20006;-66
2022/10/04 02:07:58;;;;;;;14.55;7.85;;;12.00;99.90;;;;;;3059200;19;20033;-66
2022/10/04 02:09:06;;;;;;;19.80;7.57;;;12.10;99.90;;;;;;3060562;19;20026;-66
2022/10/04 02:10:20;;;;;;;14.82;8.15;;;12.00;99.90;;;;;;3058421;19;20034;-66
2022/10/04 02:11:22;;;;;;;16.38;7.70;;;12.20;99.90;;;;;;3059543;19;20011;-66
2022/10/04 02:12:27;;;;;;;16.45;8.18;;;11.90;99.90;;;;;;3060607;19;20042;-66
2022/10/04 02:13:35;;;;;;;16.02;7.88;;;12.10;99.90;;;;;;3058112;19;20014;-66
2022/10/04 02:14:45;;;;;;;16.13;7.97;;;12.00;99.90;;;;;;3058632;19;20014;-66
2022/10/04 02:15:48;;;;;;;20.23;9.10;;;12.40;99.90;;;;;;3058954;19;20091;-66
2022/10/04 02:16:54;;;;;;;14.77;7.93;;;12.20;99.90;;;;;;3061495;19;20019;-65
2022/10/04 02:17:57;;;;;;;15.88;8.25;;;12.10;99.90;;;;;;3059013;19;20037;-66
2022/10/04 02:19:02;;;;;;;19.52;8.10;;;12.30;99.90;;;;;;3060588;19;20045;-66
2022/10/04 02:20:12;;;;;;;13.00;7.63;;;12.50;99.90;;;;;;3060416;19;20010;-66
2022/10/04 02:21:17;;;;;;;15.55;8.30;;;11.80;99.90;;;;;;3060308;19;20077;-66
2022/10/04 02:22:19;;;;;;;17.83;7.88;;;12.20;99.90;;;;;;3059324;19;20029;-66
2022/10/04 02:23:24;;;;;;;16.73;8.27;;;12.10;99.90;;;;;;3059567;19;20007;-66
2022/10/04 02:24:26;;;;;;;16.70;8.05;;;12.30;99.90;;;;;;3059196;19;20018;-66
2022/10/04 02:25:33;;;;;;;14.35;7.50;;;12.10;99.90;;;;;;3059292;19;20363;-66
2022/10/04 02:26:34;;;;;;;16.38;7.85;;;12.20;99.90;;;;;;3058310;19;20594;-66
2022/10/04 02:27:38;;;;;;;14.05;7.57;;;12.20;99.90;;;;;;3057901;19;20021;-66
2022/10/04 02:28:39;;;;;;;15.95;7.00;;;12.40;99.90;;;;;;3058307;19;20010;-66
2022/10/04 02:29:44;;;;;;;11.88;7.03;;;12.10;99.90;;;;;;3058667;19;20014;-66
2022/10/04 02:33:25;;;;;;;15.43;7.90;;;12.20;99.90;;;;;;3061045;19;20018;-67
2022/10/04 02:34:26;;;;;;;13.82;7.75;;;11.90;99.90;;;;;;3057862;19;20483;-66
2022/10/04 02:35:37;;;;;;;12.32;7.00;;;12.10;99.90;;;;;;3059789;19;20035;-66
2022/10/04 02:36:40;;;;;;;13.43;7.03;;;12.20;99.90;;;;;;3058956;19;20034;-66
2022/10/04 02:37:44;;;;;;;18.17;7.78;;;12.10;99.90;;;;;;3057507;19;20025;-66
2022/10/04 02:38:51;;;;;;;20.17;7.95;;;12.30;99.90;;;;;;3059133;19;20041;-66
2022/10/04 02:40:00;;;;;;;15.10;7.60;;;12.20;99.90;;;;;;3059482;19;20011;-68
2022/10/04 02:41:14;;;;;;;15.00;7.97;;;11.80;99.90;;;;;;3058126;19;20348;-67
2022/10/04 02:42:20;;;;;;;16.83;8.02;;;12.00;99.90;;;;;;3059291;19;19999;-65
2022/10/04 02:43:29;;;;;;;16.77;7.88;;;12.30;99.90;;;;;;3059365;19;20467;-66
2022/10/04 02:44:35;;;;;;;15.10;8.45;;;12.00;99.90;;;;;;3057271;19;20042;-67
2022/10/04 02:45:48;;;;;;;16.15;7.70;;;12.00;99.90;;;;;;3060607;19;20022;-65
2022/10/04 02:46:53;;;;;;;21.20;8.48;;;12.00;99.90;;;;;;3059435;19;20025;-66
2022/10/04 02:48:02;;;;;;;17.83;7.28;;;12.10;99.90;;;;;;3057838;19;20021;-67
2022/10/04 02:49:06;;;;;;;15.57;7.80;;;12.10;99.90;;;;;;3059058;19;20483;-66
2022/10/04 02:50:23;;;;;;;17.13;7.80;;;12.00;99.90;;;;;;3060088;19;20085;-67
2022/10/04 02:51:34;;;;;;;16.05;7.63;;;12.00;99.90;;;;;;3059265;19;20021;-66
2022/10/04 02:52:38;;;;;;;;;;;12.10;99.90;;;;;;3059933;19;20025;-66
2022/10/04 02:53:52;;;;;;;14.18;7.90;;;11.90;99.90;;;;;;3059081;19;19911;-65
2022/10/04 02:55:03;;;;;;;15.15;8.25;;;12.30;99.90;;;;;;3060620;19;20011;-66
2022/10/04 02:56:11;;;;;;;18.35;7.50;;;11.90;99.90;;;;;;3059746;19;20018;-66
2022/10/04 02:57:20;;;;;;;12.57;8.02;;;12.00;99.90;;;;;;3057898;19;20090;-66
2022/10/04 02:58:24;;;;;;;17.92;8.20;;;12.00;99.90;;;;;;3057355;19;20045;-66
2022/10/04 02:59:29;;;;;;;13.25;8.32;;;12.00;99.90;;;;;;3058781;19;19998;-66
2022/10/04 03:00:31;;;;;;;18.10;8.40;;;12.40;99.90;;;;;;3060014;19;20116;-67
2022/10/04 03:01:45;;;;;;;14.85;8.23;;;11.90;99.90;;;;;;3057977;19;20014;-66
2022/10/04 03:03:10;;;;;;;21.02;8.70;;;12.00;99.90;;;;;;3059114;19;20010;-65
2022/10/04 03:04:16;;;;;;;14.85;7.95;;;12.00;99.90;;;;;;3058744;19;20014;-66
2022/10/04 03:05:17;;;;;;;15.88;8.45;;;12.30;99.90;;;;;;3059668;19;20018;-65
2022/10/04 03:06:23;;;;;;;15.55;8.45;;;12.10;99.90;;;;;;3057837;19;20042;-65
2022/10/04 03:07:26;;;;;;;12.80;8.23;;;11.90;99.90;;;;;;3057892;19;20022;-65
2022/10/04 03:08:33;;;;;;;16.75;8.57;;;11.70;99.90;;;;;;3057044;19;20030;-65
2022/10/04 03:09:38;;;;;;;19.60;9.85;;;11.90;99.90;;;;;;3058401;19;20018;-66
2022/10/04 03:10:42;;;;;;;15.70;8.23;;;11.90;99.90;;;;;;3057428;19;20022;-66
2022/10/04 03:11:51;;;;;;;17.10;8.48;;;12.00;99.90;;;;;;3057816;19;20511;-66
2022/10/04 03:12:52;;;;;;;16.50;7.93;;;12.00;99.90;;;;;;3056819;19;19998;-66
2022/10/04 03:13:58;;;;;;;16.67;8.05;;;12.20;99.90;;;;;;3058722;19;20010;-66
2022/10/04 03:15:00;;;;;;;15.50;7.97;;;12.30;99.90;;;;;;3059591;19;20039;-65
2022/10/04 03:16:04;;;;;;;17.17;8.38;;;12.30;99.90;;;;;;3058587;19;20723;-66
2022/10/04 03:17:07;;;;;;;14.77;8.40;;;11.90;99.90;;;;;;3058838;19;20333;-66
2022/10/04 03:18:11;;;;;;;17.48;8.10;;;12.30;99.90;;;;;;3057519;19;20031;-66
2022/10/04 03:19:15;;;;;;;17.30;7.85;;;11.80;99.90;;;;;;3058722;19;19998;-66
2022/10/04 03:20:20;;;;;;;15.88;8.55;;;11.90;99.90;;;;;;3058428;19;20002;-65
2022/10/04 03:21:23;;;;;;;17.35;7.78;;;12.10;99.90;;;;;;3058996;19;20058;-66
2022/10/04 03:22:27;;;;;;;13.93;7.80;;;11.70;99.90;;;;;;3059991;19;20533;-66
2022/10/04 03:23:32;;;;;;;14.98;8.55;;;13.30;99.90;;;;;;3058613;19;20019;-65
2022/10/04 03:24:40;;;;;;;15.68;7.88;;;11.80;99.90;;;;;;3058514;19;20456;-66
2022/10/04 03:25:47;;;;;;;20.13;8.32;;;12.00;99.90;;;;;;3057880;19;20020;-66
2022/10/04 03:26:56;;;;;;;19.35;8.57;;;12.00;99.90;;;;;;3057975;19;20011;-66
2022/10/04 03:28:01;;;;;;;15.52;8.55;;;11.80;99.90;;;;;;3056213;19;20022;-66
2022/10/04 03:29:08;;;;;;;15.48;8.10;;;11.80;99.90;;;;;;3058942;19;20018;-66
2022/10/04 03:30:12;;;;;;;16.60;7.82;;;11.70;99.90;;;;;;3058942;19;20375;-66
2022/10/04 03:31:18;;;;;;;20.25;8.13;;;11.70;99.90;;;;;;3058296;19;20074;-66
2022/10/04 03:32:20;;;;;;;14.63;7.78;;;11.80;99.90;;;;;;3058283;19;20057;-65
2022/10/04 03:33:27;;;;;;;13.20;7.30;;;11.90;99.90;;;;;;3058789;19;20014;-66
2022/10/04 03:34:37;;;;;;;16.10;7.78;;;11.80;99.90;;;;;;3059710;19;20018;-65
2022/10/04 03:35:42;;;;;;;15.45;8.23;;;11.80;99.90;;;;;;3059033;19;20026;-66
2022/10/04 03:36:48;;;;;;;15.95;8.07;;;11.70;99.90;;;;;;3058051;19;20019;-66
2022/10/04 03:37:49;;;;;;;15.55;8.18;;;11.70;99.90;;;;;;3058331;19;20011;-66
2022/10/04 03:38:56;;;;;;;14.85;8.43;;;11.60;99.90;;;;;;3058682;19;20018;-66
2022/10/04 03:39:58;;;;;;;17.10;8.00;;;11.70;99.90;;;;;;3056611;19;20022;-66
2022/10/04 03:41:03;;;;;;;14.55;8.05;;;11.80;99.90;;;;;;3057758;19;20014;-65
2022/10/04 03:42:12;;;;;;;17.33;8.30;;;10.60;99.90;;;;;;3057581;19;20015;-66
2022/10/04 03:43:16;;;;;;;16.25;8.10;;;11.90;99.90;;;;;;3059314;19;20010;-66
2022/10/04 03:44:18;;;;;;;13.70;7.85;;;11.80;99.90;;;;;;3058963;19;20102;-65
2022/10/04 03:45:24;;;;;;;14.98;7.93;;;11.50;99.90;;;;;;3057783;19;20011;-66
2022/10/04 03:46:27;;;;;;;15.18;8.25;;;11.70;99.90;;;;;;3057574;19;20041;-66
2022/10/04 03:47:34;;;;;;;16.13;7.90;;;11.70;99.90;;;;;;3058952;19;20013;-66
2022/10/04 03:48:39;;;;;;;16.40;8.05;;;11.90;99.90;;;;;;3055883;19;20074;-66
2022/10/04 03:49:44;;;;;;;11.43;7.55;;;11.80;99.90;;;;;;3058169;19;20013;-66
2022/10/04 03:50:48;;;;;;;15.70;7.97;;;11.80;99.90;;;;;;3059406;19;20566;-66
2022/10/04 03:51:53;;;;;;;15.18;8.50;;;11.60;99.90;;;;;;3057292;19;20038;-66
2022/10/04 03:52:58;;;;;;;11.48;7.93;;;11.60;99.90;;;;;;3058381;19;20006;-66
2022/10/04 03:54:05;;;;;;;14.15;8.20;;;12.10;99.90;;;;;;3057987;19;20011;-65
2022/10/04 03:55:13;;;;;;;15.23;8.15;;;11.60;99.90;;;;;;3058639;19;20018;-65
2022/10/04 03:56:18;;;;;;;16.95;8.18;;;12.00;99.90;;;;;;3060276;19;20034;-66
2022/10/04 03:57:25;;;;;;;11.82;7.93;;;11.70;99.90;;;;;;3061285;19;20450;-66
2022/10/04 03:58:29;;;;;;;12.20;8.13;;;11.60;99.90;;;;;;3060983;19;20034;-66
2022/10/04 03:59:36;;;;;;;15.63;8.25;;;11.80;99.90;;;;;;3060132;19;20015;-66
2022/10/04 04:00:42;;;;;;;14.00;8.07;;;11.60;99.90;;;;;;3060394;19;20007;-65
2022/10/04 04:01:50;;;;;;;19.42;8.90;;;11.80;99.90;;;;;;3062635;19;20021;-66
2022/10/04 04:02:57;;;;;;;14.38;8.07;;;11.60;99.90;;;;;;3061302;19;20015;-67
2022/10/04 04:04:06;;;;;;;19.15;8.45;;;11.50;99.90;;;;;;3060908;19;20014;-68
2022/10/04 04:05:15;;;;;;;12.20;8.15;;;11.60;99.90;;;;;;3061063;19;20044;-67
2022/10/04 04:06:20;;;;;;;18.80;8.80;;;11.70;99.90;;;;;;3062320;19;20018;-67
2022/10/04 04:07:27;;;;;;;16.02;9.15;;;11.70;99.90;;;;;;3060932;19;20034;-67
2022/10/04 04:08:35;;;;;;;15.90;8.45;;;11.30;99.90;;;;;;3059879;19;20018;-67
2022/10/04 04:09:45;;;;;;;13.95;8.27;;;11.50;99.90;;;;;;3060221;19;20006;-67
2022/10/04 04:10:49;;;;;;;16.05;8.52;;;11.90;99.90;;;;;;3060806;19;20018;-67
2022/10/04 04:11:57;;;;;;;19.33;9.07;;;11.90;99.90;;;;;;3062062;19;20091;-67
2022/10/04 04:13:08;;;;;;;15.43;8.60;;;11.40;99.90;;;;;;3060984;19;20416;-67
2022/10/04 04:14:19;;;;;;;19.65;8.98;;;11.50;99.90;;;;;;3060202;19;20022;-67
2022/10/04 04:15:21;;;;;;;17.95;8.85;;;11.70;99.90;;;;;;3060407;19;20011;-67
2022/10/04 04:16:27;;;;;;;20.38;9.45;;;11.80;99.90;;;;;;3060722;19;20006;-67
2022/10/04 04:17:37;;;;;;;14.38;8.88;;;11.40;99.90;;;;;;3061712;19;20018;-67
2022/10/04 04:18:45;;;;;;;18.50;8.90;;;11.40;99.90;;;;;;3060415;19;20026;-67
2022/10/04 04:19:46;;;;;;;12.35;8.10;;;11.20;99.90;;;;;;3060678;19;20007;-67
2022/10/04 04:20:52;;;;;;;18.90;8.60;;;11.40;99.90;;;;;;3060850;19;20038;-67
2022/10/04 04:21:55;;;;;;;17.38;8.77;;;11.70;99.90;;;;;;3061830;19;20010;-67
2022/10/04 04:23:02;;;;;;;17.40;8.90;;;11.40;99.90;;;;;;3060503;19;20400;-67
2022/10/04 04:24:11;;;;;;;18.08;8.70;;;11.20;99.90;;;;;;3062917;19;20022;-66
2022/10/04 04:25:22;;;;;;;16.67;8.70;;;11.40;99.90;;;;;;3062354;19;20019;-67
2022/10/04 04:26:28;;;;;;;14.82;8.80;;;11.40;99.90;;;;;;3061536;19;20082;-66
2022/10/04 04:27:39;;;;;;;18.05;8.68;;;11.40;99.90;;;;;;3057910;19;20011;-67
2022/10/04 04:28:48;;;;;;;18.70;9.32;;;11.30;99.90;;;;;;3060179;19;20086;-67
2022/10/04 04:29:54;;;;;;;16.00;9.23;;;11.40;99.90;;;;;;3060717;19;20010;-66
2022/10/04 04:31:00;;;;;;;19.25;8.98;;;11.40;99.90;;;;;;3060920;19;20014;-66
2022/10/04 04:32:08;;;;;;;16.38;9.00;;;11.40;99.90;;;;;;3059807;19;20015;-66
2022/10/04 04:33:18;;;;;;;17.85;8.90;;;11.30;99.90;;;;;;3060635;19;20415;-66
2022/10/04 04:34:26;;;;;;;16.60;8.75;;;11.40;99.90;;;;;;3059526;19;20019;-66
2022/10/04 04:35:31;;;;;;;16.33;8.50;;;11.50;99.90;;;;;;3060022;19;20014;-67
2022/10/04 04:36:41;;;;;;;16.38;8.48;;;11.50;99.90;;;;;;3059494;19;19999;-67
2022/10/04 04:37:43;;;;;;;19.70;8.60;;;11.40;99.90;;;;;;3061996;19;20017;-67
2022/10/04 04:40:20;;;;;;;17.63;8.88;;;11.40;99.90;;;;;;3059301;19;20015;-67
2022/10/04 04:41:23;;;;;;;14.60;8.10;;;11.30;99.90;;;;;;3060429;19;20324;-67
2022/10/04 04:42:32;;;;;;;22.98;9.02;;;11.80;99.90;;;;;;3062019;19;20018;-67
2022/10/04 04:43:34;;;;;;;14.95;8.65;;;11.90;99.90;;;;;;3060265;19;20022;-67
2022/10/04 04:44:47;;;;;;;15.13;8.52;;;11.10;99.90;;;;;;3060612;19;20027;-67
2022/10/04 04:45:53;;;;;;;14.65;8.80;;;11.60;99.90;;;;;;3060715;19;20022;-67
2022/10/04 04:46:59;;;;;;;18.30;8.77;;;11.90;99.90;;;;;;3059782;19;20018;-67
2022/10/04 04:48:03;;;;;;;17.58;8.82;;;11.50;99.90;;;;;;3060294;19;20002;-67
2022/10/04 04:49:05;;;;;;;21.30;8.95;;;11.70;99.90;;;;;;3060798;19;20018;-67
2022/10/04 04:50:14;;;;;;;19.77;8.90;;;11.70;99.90;;;;;;3059306;19;20014;-67
2022/10/04 04:51:20;;;;;;;20.85;9.30;;;11.70;99.90;;;;;;3062321;19;20027;-67
2022/10/04 04:52:29;;;;;;;16.52;8.52;;;11.30;99.90;;;;;;3059391;19;20354;-67
2022/10/04 04:53:31;;;;;;;16.70;8.50;;;11.50;99.90;;;;;;3059783;19;20002;-67
2022/10/04 04:54:36;;;;;;;18.20;9.38;;;11.80;99.90;;;;;;3053017;19;20017;-66
2022/10/04 04:55:40;;;;;;;14.13;8.80;;;11.90;99.90;;;;;;3056332;19;20027;-67
2022/10/04 04:56:44;;;;;;;16.08;8.40;;;11.70;99.90;;;;;;3059518;19;20018;-66
2022/10/04 04:57:47;;;;;;;18.40;9.30;;;11.50;99.90;;;;;;3059536;19;20015;-67
2022/10/04 04:58:52;;;;;;;16.52;9.15;;;11.40;99.90;;;;;;3060205;19;20010;-66
2022/10/04 04:59:59;;;;;;;18.75;9.50;;;11.40;99.90;;;;;;3059251;19;20015;-67
2022/10/04 05:01:07;;;;;;;18.85;9.43;;;11.40;99.90;;;;;;3060636;19;20022;-67
2022/10/04 05:02:27;;;;;;;15.88;9.45;;;12.20;99.90;;;;;;3061174;19;20018;-67
2022/10/04 05:03:32;;;;;;;13.77;8.88;;;11.40;99.90;;;;;;3059762;19;20047;-66
2022/10/04 05:04:34;;;;;;;18.92;8.90;;;11.30;99.90;;;;;;3061649;19;20011;-67
2022/10/04 05:05:38;;;;;;;20.15;9.80;;;11.60;99.90;;;;;;3060474;19;20094;-67
2022/10/04 05:06:41;;;;;;;17.67;9.77;;;11.10;99.90;;;;;;3055635;19;20029;-66
2022/10/04 05:07:45;;;;;;;18.35;9.60;;;11.40;99.90;;;;;;3059179;19;20010;-66
2022/10/04 05:08:49;;;;;;;17.35;9.60;;;11.40;99.90;;;;;;3060306;19;20015;-67
2022/10/04 05:09:53;;;;;;;19.73;9.20;;;;;;;;;;3061482;19;20082;-66
2022/10/04 05:11:04;;;;;;;19.70;8.82;;;11.10;99.90;;;;;;3058924;19;20022;-66
2022/10/04 05:12:14;;;;;;;16.37;9.40;;;11.60;99.90;;;;;;3052583;19;20724;-66
2022/10/04 05:13:18;;;;;;;19.58;9.98;;;11.30;99.90;;;;;;3052972;19;20022;-66
2022/10/04 05:14:22;;;;;;;19.45;9.68;;;11.30;99.90;;;;;;3049458;19;20022;-66
2022/10/04 05:15:30;;;;;;;19.88;10.23;;;11.30;99.90;;;;;;3056124;19;20018;-66
2022/10/04 05:16:40;;;;;;;17.83;10.23;;;11.20;99.90;;;;;;3061978;19;20021;-67
2022/10/04 05:17:41;;;;;;;16.83;9.88;;;11.80;99.90;;;;;;3058403;19;20018;-66
2022/10/04 05:18:47;;;;;;;22.17;10.32;;;11.30;99.90;;;;;;3058509;19;20028;-66
2022/10/04 05:19:49;;;;;;;20.10;10.00;;;11.30;99.90;;;;;;3061622;19;20014;-66
2022/10/04 05:20:55;;;;;;;23.25;9.70;;;11.40;99.90;;;;;;3060625;19;20011;-66
2022/10/04 05:21:59;;;;;;;21.38;9.75;;;11.70;99.90;;;;;;3060063;19;20344;-66
2022/10/04 05:23:03;;;;;;;15.90;9.43;;;11.50;99.90;;;;;;3059300;19;20030;-66
2022/10/04 05:24:10;;;;;;;18.85;9.50;;;11.80;99.90;;;;;;3054128;19;20027;-66
2022/10/04 05:25:23;;;;;;;20.58;9.82;;;11.60;99.90;;;;;;3057490;19;20015;-66
2022/10/04 05:26:28;;;;;;;23.15;10.02;;;11.30;99.90;;;;;;3061675;19;20021;-66
2022/10/04 05:27:38;;;;;;;18.52;9.85;;;11.20;99.90;;;;;;3058982;19;20033;-66
2022/10/04 05:28:40;;;;;;;17.52;9.38;;;11.20;99.90;;;;;;3058630;19;20011;-66
2022/10/04 05:30:03;;;;;;;22.40;9.88;;;11.20;99.90;;;;;;3057880;19;20042;-66
2022/10/04 05:31:37;;;;;;;21.92;10.02;;;11.30;99.90;;;;;;3061259;19;20014;-66
2022/10/04 05:32:49;;;;;;;18.60;9.68;;;11.30;99.90;;;;;;3060854;19;20014;-66
2022/10/04 05:33:54;;;;;;;;;;;12.10;99.90;;;;;;3060836;19;20022;-67
2022/10/04 05:34:55;;;;;;;16.90;10.13;;;11.50;99.90;;;;;;3061482;19;19923;-66
2022/10/04 05:36:37;;;;;;;17.50;9.70;;;11.30;99.90;;;;;;3060139;19;20018;-67
2022/10/04 05:37:57;;;;;;;17.65;9.32;;;11.40;99.90;;;;;;3058097;19;20114;-67
2022/10/04 05:39:05;;;;;;;19.65;10.65;;;11.10;99.90;;;;;;3059230;19;20029;-66
2022/10/04 05:40:31;;;;;;;19.45;9.65;;;11.10;99.90;;;;;;3061545;19;20052;-66
2022/10/04 05:41:38;;;;;;;17.58;10.02;;;11.00;99.90;;;;;;3059723;19;20062;-67
2022/10/04 05:42:45;;;;;;;16.02;10.02;;;11.00;99.90;;;;;;3060905;19;20011;-66
2022/10/04 05:43:49;;;;;;;17.50;10.18;;;11.20;99.90;;;;;;3060451;19;20081;-66
2022/10/04 05:44:55;;;;;;;18.15;10.25;;;11.00;99.90;;;;;;3058242;19;20015;-67
2022/10/04 05:46:32;;;;;;;18.88;10.13;;;11.10;99.90;;;;;;3059425;19;20455;-68
2022/10/04 05:47:35;;;;;;;17.40;10.35;;;11.00;99.90;;;;;;3059350;19;20510;-67
2022/10/04 05:48:43;;;;;;;18.25;10.07;;;11.00;99.90;;;;;;3059582;19;20014;-66
2022/10/04 05:49:46;;;;;;;16.55;10.38;;;10.90;99.90;;;;;;3059735;19;20002;-66
2022/10/04 05:50:51;;;;;;;19.27;11.02;;;;;;;;;;3059501;19;20119;-66
2022/10/04 05:51:54;;;;;;;21.15;11.05;;;11.00;99.90;;;;;;3058607;19;20142;-66